Terminal Aerodrome Forecast
Issued by NWS

Home | Current Version | Previous Version | Text Only | Print | Product List | Glossary On
Versions: 1 2 3 4 5 6 7 8 9 10 11 12 13 14 15 16 17 18 19 20
605
FTUS46 KPDT 191140
TAFRDM
TAF
KRDM 191140Z 1912/2012 18005KT P6SM SCT150 BKN180
     FM192100 24008KT P6SM BKN050
     FM200200 15005KT P6SM SCT100 SCT150=

USA.gov is the U.S. government's official web portal to all federal, state and local government web resources and services.